sensor_id;sensor_type;location;lat;lon;timestamp;P1;durP1;ratioP1;P2;durP2;ratioP2
3712;SDS011;1872;51.406;6.856;2023-02-28T00:01:26;13.07;;;8.80;;
3712;SDS011;1872;51.406;6.856;2023-02-28T00:03:51;10.27;;;8.67;;
3712;SDS011;1872;51.406;6.856;2023-02-28T00:06:17;10.70;;;9.10;;
3712;SDS011;1872;51.406;6.856;2023-02-28T00:08:43;12.40;;;9.20;;
3712;SDS011;1872;51.406;6.856;2023-02-28T00:11:09;12.37;;;9.77;;
3712;SDS011;1872;51.406;6.856;2023-02-28T00:13:39;13.40;;;9.93;;
3712;SDS011;1872;51.406;6.856;2023-02-28T00:16:07;12.40;;;9.70;;
3712;SDS011;1872;51.406;6.856;2023-02-28T00:18:35;11.77;;;10.00;;
3712;SDS011;1872;51.406;6.856;2023-02-28T00:21:01;12.53;;;10.10;;
3712;SDS011;1872;51.406;6.856;2023-02-28T00:23:27;13.20;;;9.83;;
3712;SDS011;1872;51.406;6.856;2023-02-28T00:25:53;13.83;;;10.93;;
3712;SDS011;1872;51.406;6.856;2023-02-28T00:28:19;13.40;;;10.10;;
3712;SDS011;1872;51.406;6.856;2023-02-28T00:30:45;10.37;;;9.03;;
3712;SDS011;1872;51.406;6.856;2023-02-28T00:33:11;10.37;;;7.77;;
3712;SDS011;1872;51.406;6.856;2023-02-28T00:35:37;9.90;;;8.60;;
3712;SDS011;1872;51.406;6.856;2023-02-28T00:38:03;10.97;;;8.07;;
3712;SDS011;1872;51.406;6.856;2023-02-28T00:40:29;8.60;;;7.20;;
3712;SDS011;1872;51.406;6.856;2023-02-28T00:42:57;9.37;;;6.83;;
3712;SDS011;1872;51.406;6.856;2023-02-28T00:45:23;8.70;;;7.17;;
3712;SDS011;1872;51.406;6.856;2023-02-28T00:47:49;9.43;;;8.07;;
3712;SDS011;1872;51.406;6.856;2023-02-28T00:50:18;9.00;;;7.00;;
3712;SDS011;1872;51.406;6.856;2023-02-28T00:52:45;7.47;;;6.70;;
3712;SDS011;1872;51.406;6.856;2023-02-28T00:55:11;7.93;;;6.50;;
3712;SDS011;1872;51.406;6.856;2023-02-28T00:57:37;8.90;;;6.47;;
3712;SDS011;1872;51.406;6.856;2023-02-28T01:00:03;7.70;;;5.93;;
3712;SDS011;1872;51.406;6.856;2023-02-28T01:02:29;7.57;;;6.77;;
3712;SDS011;1872;51.406;6.856;2023-02-28T01:04:55;6.93;;;6.00;;
3712;SDS011;1872;51.406;6.856;2023-02-28T01:07:22;10.23;;;7.43;;
3712;SDS011;1872;51.406;6.856;2023-02-28T01:09:48;7.17;;;6.03;;
3712;SDS011;1872;51.406;6.856;2023-02-28T01:12:14;7.13;;;6.43;;
3712;SDS011;1872;51.406;6.856;2023-02-28T01:14:40;7.67;;;6.87;;
3712;SDS011;1872;51.406;6.856;2023-02-28T01:17:06;9.70;;;6.93;;
3712;SDS011;1872;51.406;6.856;2023-02-28T01:19:31;12.00;;;7.33;;
3712;SDS011;1872;51.406;6.856;2023-02-28T01:22:00;9.17;;;6.87;;
3712;SDS011;1872;51.406;6.856;2023-02-28T01:24:27;8.97;;;7.17;;
3712;SDS011;1872;51.406;6.856;2023-02-28T01:26:52;8.23;;;7.00;;
3712;SDS011;1872;51.406;6.856;2023-02-28T01:29:18;8.00;;;6.80;;
3712;SDS011;1872;51.406;6.856;2023-02-28T01:31:44;7.50;;;6.80;;
3712;SDS011;1872;51.406;6.856;2023-02-28T01:34:12;8.00;;;7.10;;
3712;SDS011;1872;51.406;6.856;2023-02-28T01:36:38;8.73;;;7.30;;
3712;SDS011;1872;51.406;6.856;2023-02-28T01:39:04;8.40;;;7.20;;
3712;SDS011;1872;51.406;6.856;2023-02-28T01:41:30;7.80;;;6.63;;
3712;SDS011;1872;51.406;6.856;2023-02-28T01:44:04;8.47;;;7.13;;
3712;SDS011;1872;51.406;6.856;2023-02-28T01:46:34;7.73;;;7.00;;
3712;SDS011;1872;51.406;6.856;2023-02-28T01:49:09;8.57;;;7.67;;
3712;SDS011;1872;51.406;6.856;2023-02-28T01:51:42;7.93;;;6.90;;
3712;SDS011;1872;51.406;6.856;2023-02-28T01:54:11;9.27;;;7.07;;
3712;SDS011;1872;51.406;6.856;2023-02-28T01:56:46;13.60;;;7.80;;
3712;SDS011;1872;51.406;6.856;2023-02-28T01:59:27;8.03;;;7.13;;
3712;SDS011;1872;51.406;6.856;2023-02-28T02:02:00;7.63;;;6.80;;
3712;SDS011;1872;51.406;6.856;2023-02-28T02:04:30;9.30;;;7.47;;
3712;SDS011;1872;51.406;6.856;2023-02-28T02:07:02;7.13;;;6.40;;
3712;SDS011;1872;51.406;6.856;2023-02-28T02:09:28;8.77;;;7.30;;
3712;SDS011;1872;51.406;6.856;2023-02-28T02:11:54;10.10;;;8.30;;
3712;SDS011;1872;51.406;6.856;2023-02-28T02:14:31;7.40;;;6.70;;
3712;SDS011;1872;51.406;6.856;2023-02-28T02:17:25;7.17;;;6.20;;
3712;SDS011;1872;51.406;6.856;2023-02-28T02:36:52;6.90;;;6.20;;
3712;SDS011;1872;51.406;6.856;2023-02-28T02:40:13;9.37;;;6.93;;
3712;SDS011;1872;51.406;6.856;2023-02-28T02:42:39;9.93;;;8.10;;
3712;SDS011;1872;51.406;6.856;2023-02-28T02:45:12;7.70;;;6.73;;
3712;SDS011;1872;51.406;6.856;2023-02-28T02:47:44;7.87;;;7.07;;
3712;SDS011;1872;51.406;6.856;2023-02-28T02:50:12;7.50;;;6.13;;
3712;SDS011;1872;51.406;6.856;2023-02-28T02:52:45;7.47;;;6.37;;
3712;SDS011;1872;51.406;6.856;2023-02-28T02:55:15;7.07;;;6.20;;
3712;SDS011;1872;51.406;6.856;2023-02-28T03:00:16;9.40;;;6.90;;
3712;SDS011;1872;51.406;6.856;2023-02-28T03:02:45;6.80;;;6.10;;
3712;SDS011;1872;51.406;6.856;2023-02-28T03:05:35;12.90;;;6.30;;
3712;SDS011;1872;51.406;6.856;2023-02-28T03:08:19;7.03;;;6.43;;
3712;SDS011;1872;51.406;6.856;2023-02-28T03:10:46;9.17;;;6.63;;
3712;SDS011;1872;51.406;6.856;2023-02-28T03:16:07;7.77;;;5.73;;
3712;SDS011;1872;51.406;6.856;2023-02-28T03:18:57;6.47;;;5.80;;
3712;SDS011;1872;51.406;6.856;2023-02-28T03:32:43;6.20;;;5.60;;
3712;SDS011;1872;51.406;6.856;2023-02-28T03:35:20;8.60;;;6.17;;
3712;SDS011;1872;51.406;6.856;2023-02-28T03:37:53;6.00;;;5.37;;
3712;SDS011;1872;51.406;6.856;2023-02-28T03:40:26;9.13;;;5.93;;
3712;SDS011;1872;51.406;6.856;2023-02-28T03:42:56;6.27;;;5.77;;
3712;SDS011;1872;51.406;6.856;2023-02-28T03:45:28;7.50;;;6.80;;
3712;SDS011;1872;51.406;6.856;2023-02-28T03:48:01;5.80;;;5.30;;
3712;SDS011;1872;51.406;6.856;2023-02-28T03:50:49;7.03;;;6.30;;
3712;SDS011;1872;51.406;6.856;2023-02-28T03:53:39;7.73;;;5.50;;
3712;SDS011;1872;51.406;6.856;2023-02-28T03:56:20;5.60;;;5.10;;
3712;SDS011;1872;51.406;6.856;2023-02-28T03:58:55;6.80;;;5.50;;
3712;SDS011;1872;51.406;6.856;2023-02-28T04:01:32;7.30;;;5.80;;
3712;SDS011;1872;51.406;6.856;2023-02-28T04:04:02;8.60;;;4.63;;
3712;SDS011;1872;51.406;6.856;2023-02-28T04:06:30;7.87;;;5.93;;
3712;SDS011;1872;51.406;6.856;2023-02-28T04:08:57;5.53;;;4.90;;
3712;SDS011;1872;51.406;6.856;2023-02-28T04:13:55;6.00;;;5.33;;
3712;SDS011;1872;51.406;6.856;2023-02-28T04:16:21;6.97;;;6.20;;
3712;SDS011;1872;51.406;6.856;2023-02-28T04:18:46;6.30;;;5.60;;
3712;SDS011;1872;51.406;6.856;2023-02-28T04:21:12;6.77;;;5.20;;
3712;SDS011;1872;51.406;6.856;2023-02-28T04:23:38;7.80;;;5.77;;
3712;SDS011;1872;51.406;6.856;2023-02-28T04:26:04;8.23;;;5.97;;
3712;SDS011;1872;51.406;6.856;2023-02-28T04:28:31;7.23;;;5.50;;
3712;SDS011;1872;51.406;6.856;2023-02-28T04:30:57;5.80;;;5.20;;
3712;SDS011;1872;51.406;6.856;2023-02-28T04:33:24;6.00;;;5.40;;
3712;SDS011;1872;51.406;6.856;2023-02-28T04:36:02;5.80;;;4.83;;
3712;SDS011;1872;51.406;6.856;2023-02-28T04:38:32;7.13;;;5.30;;
3712;SDS011;1872;51.406;6.856;2023-02-28T04:40:59;7.00;;;6.30;;
3712;SDS011;1872;51.406;6.856;2023-02-28T04:43:28;6.40;;;5.00;;
3712;SDS011;1872;51.406;6.856;2023-02-28T04:45:54;6.07;;;5.37;;
3712;SDS011;1872;51.406;6.856;2023-02-28T04:48:22;6.50;;;5.00;;
3712;SDS011;1872;51.406;6.856;2023-02-28T04:50:49;5.97;;;5.47;;
3712;SDS011;1872;51.406;6.856;2023-02-28T04:53:15;6.17;;;5.47;;
3712;SDS011;1872;51.406;6.856;2023-02-28T04:55:43;5.53;;;4.73;;
3712;SDS011;1872;51.406;6.856;2023-02-28T04:58:09;5.87;;;5.37;;
3712;SDS011;1872;51.406;6.856;2023-02-28T05:00:35;10.23;;;5.80;;
3712;SDS011;1872;51.406;6.856;2023-02-28T05:03:01;5.97;;;5.37;;
3712;SDS011;1872;51.406;6.856;2023-02-28T05:05:26;6.20;;;5.07;;
3712;SDS011;1872;51.406;6.856;2023-02-28T05:07:54;6.60;;;5.50;;
3712;SDS011;1872;51.406;6.856;2023-02-28T05:10:21;6.00;;;5.20;;
3712;SDS011;1872;51.406;6.856;2023-02-28T05:12:47;5.97;;;5.30;;
3712;SDS011;1872;51.406;6.856;2023-02-28T05:15:13;5.47;;;4.97;;
3712;SDS011;1872;51.406;6.856;2023-02-28T05:17:39;8.33;;;5.70;;
3712;SDS011;1872;51.406;6.856;2023-02-28T05:20:05;5.63;;;5.10;;
3712;SDS011;1872;51.406;6.856;2023-02-28T05:22:32;8.47;;;6.13;;
3712;SDS011;1872;51.406;6.856;2023-02-28T05:24:57;7.00;;;5.27;;
3712;SDS011;1872;51.406;6.856;2023-02-28T05:27:23;5.30;;;4.90;;
3712;SDS011;1872;51.406;6.856;2023-02-28T05:29:49;7.83;;;6.27;;
3712;SDS011;1872;51.406;6.856;2023-02-28T05:32:15;10.70;;;5.20;;
3712;SDS011;1872;51.406;6.856;2023-02-28T05:34:41;6.23;;;5.63;;
3712;SDS011;1872;51.406;6.856;2023-02-28T05:37:15;6.17;;;5.57;;
3712;SDS011;1872;51.406;6.856;2023-02-28T05:39:42;6.47;;;5.50;;
3712;SDS011;1872;51.406;6.856;2023-02-28T05:42:08;6.60;;;5.83;;
3712;SDS011;1872;51.406;6.856;2023-02-28T05:44:34;8.37;;;6.00;;
3712;SDS011;1872;51.406;6.856;2023-02-28T05:47:00;6.63;;;5.70;;
3712;SDS011;1872;51.406;6.856;2023-02-28T05:49:26;5.53;;;5.03;;
3712;SDS011;1872;51.406;6.856;2023-02-28T05:51:51;6.20;;;5.60;;
3712;SDS011;1872;51.406;6.856;2023-02-28T05:54:17;6.10;;;5.10;;
3712;SDS011;1872;51.406;6.856;2023-02-28T05:56:43;8.00;;;5.30;;
3712;SDS011;1872;51.406;6.856;2023-02-28T05:59:11;6.93;;;5.40;;
3712;SDS011;1872;51.406;6.856;2023-02-28T06:01:43;7.53;;;5.80;;
3712;SDS011;1872;51.406;6.856;2023-02-28T06:04:14;6.53;;;5.90;;
3712;SDS011;1872;51.406;6.856;2023-02-28T06:06:46;5.80;;;5.27;;
3712;SDS011;1872;51.406;6.856;2023-02-28T06:09:12;6.30;;;5.70;;
3712;SDS011;1872;51.406;6.856;2023-02-28T06:11:38;5.43;;;5.00;;
3712;SDS011;1872;51.406;6.856;2023-02-28T06:14:09;9.57;;;5.67;;
3712;SDS011;1872;51.406;6.856;2023-02-28T06:16:42;6.33;;;5.40;;
3712;SDS011;1872;51.406;6.856;2023-02-28T06:19:08;6.43;;;5.47;;
3712;SDS011;1872;51.406;6.856;2023-02-28T06:21:34;8.10;;;6.13;;
3712;SDS011;1872;51.406;6.856;2023-02-28T06:24:00;7.73;;;6.50;;
3712;SDS011;1872;51.406;6.856;2023-02-28T06:26:26;5.90;;;5.30;;
3712;SDS011;1872;51.406;6.856;2023-02-28T06:28:53;7.50;;;5.20;;
3712;SDS011;1872;51.406;6.856;2023-02-28T06:31:19;7.00;;;5.63;;
3712;SDS011;1872;51.406;6.856;2023-02-28T06:33:46;6.30;;;5.77;;
3712;SDS011;1872;51.406;6.856;2023-02-28T06:36:13;6.83;;;5.77;;
3712;SDS011;1872;51.406;6.856;2023-02-28T06:38:40;7.10;;;6.10;;
3712;SDS011;1872;51.406;6.856;2023-02-28T06:41:06;5.70;;;5.10;;
3712;SDS011;1872;51.406;6.856;2023-02-28T06:43:33;7.50;;;5.27;;
3712;SDS011;1872;51.406;6.856;2023-02-28T06:46:05;6.20;;;5.60;;
3712;SDS011;1872;51.406;6.856;2023-02-28T06:48:32;7.63;;;6.13;;
3712;SDS011;1872;51.406;6.856;2023-02-28T06:51:04;6.80;;;5.90;;
3712;SDS011;1872;51.406;6.856;2023-02-28T06:53:34;8.43;;;6.60;;
3712;SDS011;1872;51.406;6.856;2023-02-28T06:56:03;12.23;;;6.07;;
3712;SDS011;1872;51.406;6.856;2023-02-28T06:58:30;8.67;;;6.47;;
3712;SDS011;1872;51.406;6.856;2023-02-28T07:00:56;6.57;;;5.90;;
3712;SDS011;1872;51.406;6.856;2023-02-28T07:03:22;8.07;;;6.00;;
3712;SDS011;1872;51.406;6.856;2023-02-28T07:05:48;6.70;;;5.77;;
3712;SDS011;1872;51.406;6.856;2023-02-28T07:08:14;6.10;;;5.47;;
3712;SDS011;1872;51.406;6.856;2023-02-28T07:10:40;7.17;;;6.13;;
3712;SDS011;1872;51.406;6.856;2023-02-28T07:13:06;7.53;;;6.43;;
3712;SDS011;1872;51.406;6.856;2023-02-28T07:15:34;7.17;;;5.70;;
3712;SDS011;1872;51.406;6.856;2023-02-28T07:18:00;9.87;;;6.27;;
3712;SDS011;1872;51.406;6.856;2023-02-28T07:20:26;7.60;;;5.77;;
3712;SDS011;1872;51.406;6.856;2023-02-28T07:22:52;9.47;;;6.17;;
3712;SDS011;1872;51.406;6.856;2023-02-28T07:25:25;8.10;;;5.80;;
3712;SDS011;1872;51.406;6.856;2023-02-28T07:27:53;11.87;;;9.97;;
3712;SDS011;1872;51.406;6.856;2023-02-28T07:30:19;13.20;;;10.53;;
3712;SDS011;1872;51.406;6.856;2023-02-28T07:32:45;9.00;;;7.33;;
3712;SDS011;1872;51.406;6.856;2023-02-28T07:35:11;7.97;;;6.30;;
3712;SDS011;1872;51.406;6.856;2023-02-28T07:37:37;7.87;;;6.47;;
3712;SDS011;1872;51.406;6.856;2023-02-28T07:40:07;7.87;;;6.37;;
3712;SDS011;1872;51.406;6.856;2023-02-28T07:42:36;6.40;;;5.77;;
3712;SDS011;1872;51.406;6.856;2023-02-28T07:45:03;7.60;;;5.87;;
3712;SDS011;1872;51.406;6.856;2023-02-28T07:47:30;7.07;;;5.20;;
3712;SDS011;1872;51.406;6.856;2023-02-28T07:49:56;7.87;;;5.93;;
3712;SDS011;1872;51.406;6.856;2023-02-28T07:52:22;5.70;;;5.20;;
3712;SDS011;1872;51.406;6.856;2023-02-28T07:54:49;8.53;;;6.73;;
3712;SDS011;1872;51.406;6.856;2023-02-28T07:57:15;5.80;;;5.27;;
3712;SDS011;1872;51.406;6.856;2023-02-28T07:59:41;5.70;;;5.17;;
3712;SDS011;1872;51.406;6.856;2023-02-28T08:02:10;5.73;;;5.27;;
3712;SDS011;1872;51.406;6.856;2023-02-28T08:04:39;6.30;;;5.70;;
3712;SDS011;1872;51.406;6.856;2023-02-28T08:07:05;7.37;;;5.77;;
3712;SDS011;1872;51.406;6.856;2023-02-28T08:09:30;6.40;;;5.80;;
3712;SDS011;1872;51.406;6.856;2023-02-28T08:11:56;8.50;;;5.93;;
3712;SDS011;1872;51.406;6.856;2023-02-28T08:14:22;5.70;;;5.03;;
3712;SDS011;1872;51.406;6.856;2023-02-28T08:16:48;5.80;;;5.07;;
3712;SDS011;1872;51.406;6.856;2023-02-28T08:19:13;4.70;;;4.30;;
3712;SDS011;1872;51.406;6.856;2023-02-28T08:21:39;6.43;;;5.07;;
3712;SDS011;1872;51.406;6.856;2023-02-28T08:24:05;6.47;;;5.37;;
3712;SDS011;1872;51.406;6.856;2023-02-28T08:26:31;8.67;;;6.40;;
3712;SDS011;1872;51.406;6.856;2023-02-28T08:28:57;8.70;;;5.80;;
3712;SDS011;1872;51.406;6.856;2023-02-28T08:31:22;7.80;;;5.87;;
3712;SDS011;1872;51.406;6.856;2023-02-28T08:33:48;6.80;;;6.17;;
3712;SDS011;1872;51.406;6.856;2023-02-28T08:36:17;7.07;;;6.00;;
3712;SDS011;1872;51.406;6.856;2023-02-28T08:38:43;5.83;;;4.70;;
3712;SDS011;1872;51.406;6.856;2023-02-28T08:41:10;5.80;;;5.20;;
3712;SDS011;1872;51.406;6.856;2023-02-28T08:43:37;6.67;;;5.97;;
3712;SDS011;1872;51.406;6.856;2023-02-28T08:46:04;8.40;;;6.23;;
3712;SDS011;1872;51.406;6.856;2023-02-28T08:48:31;6.80;;;5.97;;
3712;SDS011;1872;51.406;6.856;2023-02-28T08:50:59;6.47;;;5.87;;
3712;SDS011;1872;51.406;6.856;2023-02-28T08:53:34;6.53;;;5.93;;
3712;SDS011;1872;51.406;6.856;2023-02-28T08:56:10;5.60;;;4.90;;
3712;SDS011;1872;51.406;6.856;2023-02-28T08:58:38;6.60;;;5.50;;
3712;SDS011;1872;51.406;6.856;2023-02-28T09:01:12;6.47;;;5.37;;
3712;SDS011;1872;51.406;6.856;2023-02-28T09:03:40;6.30;;;5.20;;
3712;SDS011;1872;51.406;6.856;2023-02-28T09:06:07;5.83;;;5.23;;
3712;SDS011;1872;51.406;6.856;2023-02-28T09:08:33;5.33;;;4.83;;
3712;SDS011;1872;51.406;6.856;2023-02-28T09:11:00;6.67;;;6.00;;
3712;SDS011;1872;51.406;6.856;2023-02-28T09:13:26;5.50;;;4.90;;
3712;SDS011;1872;51.406;6.856;2023-02-28T09:15:53;8.33;;;5.67;;
3712;SDS011;1872;51.406;6.856;2023-02-28T09:18:19;5.67;;;4.73;;
3712;SDS011;1872;51.406;6.856;2023-02-28T09:20:45;5.63;;;5.10;;
3712;SDS011;1872;51.406;6.856;2023-02-28T09:23:13;5.70;;;4.70;;
3712;SDS011;1872;51.406;6.856;2023-02-28T09:25:49;5.00;;;4.60;;
3712;SDS011;1872;51.406;6.856;2023-02-28T09:28:16;4.83;;;4.40;;
3712;SDS011;1872;51.406;6.856;2023-02-28T09:30:47;5.57;;;4.67;;
3712;SDS011;1872;51.406;6.856;2023-02-28T09:33:15;5.03;;;4.40;;
3712;SDS011;1872;51.406;6.856;2023-02-28T09:35:42;5.10;;;4.60;;
3712;SDS011;1872;51.406;6.856;2023-02-28T09:38:08;5.20;;;4.00;;
3712;SDS011;1872;51.406;6.856;2023-02-28T09:40:39;4.67;;;4.27;;
3712;SDS011;1872;51.406;6.856;2023-02-28T09:43:10;5.70;;;4.47;;
3712;SDS011;1872;51.406;6.856;2023-02-28T09:45:39;4.90;;;4.50;;
3712;SDS011;1872;51.406;6.856;2023-02-28T09:48:23;4.93;;;4.53;;
3712;SDS011;1872;51.406;6.856;2023-02-28T09:50:55;4.10;;;3.80;;
3712;SDS011;1872;51.406;6.856;2023-02-28T09:53:35;4.73;;;3.70;;
3712;SDS011;1872;51.406;6.856;2023-02-28T09:56:05;4.67;;;4.27;;
3712;SDS011;1872;51.406;6.856;2023-02-28T10:04:00;3.60;;;3.30;;
3712;SDS011;1872;51.406;6.856;2023-02-28T10:06:35;4.73;;;4.33;;
3712;SDS011;1872;51.406;6.856;2023-02-28T10:09:10;4.10;;;3.80;;
3712;SDS011;1872;51.406;6.856;2023-02-28T10:11:40;3.60;;;3.37;;
3712;SDS011;1872;51.406;6.856;2023-02-28T10:16:39;3.60;;;3.30;;
3712;SDS011;1872;51.406;6.856;2023-02-28T10:22:14;3.40;;;3.20;;
3712;SDS011;1872;51.406;6.856;2023-02-28T10:24:51;4.20;;;3.80;;
3712;SDS011;1872;51.406;6.856;2023-02-28T10:27:23;3.57;;;3.27;;
3712;SDS011;1872;51.406;6.856;2023-02-28T10:29:54;4.30;;;3.30;;
3712;SDS011;1872;51.406;6.856;2023-02-28T10:32:25;3.47;;;3.17;;
3712;SDS011;1872;51.406;6.856;2023-02-28T10:34:59;4.87;;;4.07;;
3712;SDS011;1872;51.406;6.856;2023-02-28T10:37:32;4.50;;;3.83;;
3712;SDS011;1872;51.406;6.856;2023-02-28T10:40:03;3.67;;;3.37;;
3712;SDS011;1872;51.406;6.856;2023-02-28T10:42:31;5.83;;;3.43;;
3712;SDS011;1872;51.406;6.856;2023-02-28T10:45:13;3.60;;;3.40;;
3712;SDS011;1872;51.406;6.856;2023-02-28T10:47:57;3.57;;;3.27;;
3712;SDS011;1872;51.406;6.856;2023-02-28T10:53:10;3.57;;;3.27;;
3712;SDS011;1872;51.406;6.856;2023-02-28T10:58:32;5.90;;;4.90;;
3712;SDS011;1872;51.406;6.856;2023-02-28T11:01:21;3.90;;;3.47;;
3712;SDS011;1872;51.406;6.856;2023-02-28T11:04:00;4.10;;;3.70;;
3712;SDS011;1872;51.406;6.856;2023-02-28T11:08:59;3.60;;;3.30;;
3712;SDS011;1872;51.406;6.856;2023-02-28T11:11:29;4.03;;;3.53;;
3712;SDS011;1872;51.406;6.856;2023-02-28T11:14:06;4.07;;;2.60;;
3712;SDS011;1872;51.406;6.856;2023-02-28T11:16:42;3.23;;;3.03;;
3712;SDS011;1872;51.406;6.856;2023-02-28T11:19:14;3.47;;;3.20;;
3712;SDS011;1872;51.406;6.856;2023-02-28T11:21:51;3.50;;;3.20;;
3712;SDS011;1872;51.406;6.856;2023-02-28T11:26:54;3.50;;;3.30;;
3712;SDS011;1872;51.406;6.856;2023-02-28T11:29:29;3.63;;;3.37;;
3712;SDS011;1872;51.406;6.856;2023-02-28T11:34:41;3.13;;;2.93;;
3712;SDS011;1872;51.406;6.856;2023-02-28T11:37:18;3.50;;;3.30;;
3712;SDS011;1872;51.406;6.856;2023-02-28T11:39:45;2.97;;;2.77;;
3712;SDS011;1872;51.406;6.856;2023-02-28T11:42:16;3.43;;;3.23;;
3712;SDS011;1872;51.406;6.856;2023-02-28T11:56:17;4.13;;;3.50;;
3712;SDS011;1872;51.406;6.856;2023-02-28T12:04:49;4.60;;;4.20;;
3712;SDS011;1872;51.406;6.856;2023-02-28T12:10:05;4.47;;;3.70;;
3712;SDS011;1872;51.406;6.856;2023-02-28T12:21:03;3.67;;;3.37;;
3712;SDS011;1872;51.406;6.856;2023-02-28T12:29:13;4.80;;;4.40;;
3712;SDS011;1872;51.406;6.856;2023-02-28T12:32:16;4.80;;;4.40;;
3712;SDS011;1872;51.406;6.856;2023-02-28T12:37:41;3.93;;;3.37;;
3712;SDS011;1872;51.406;6.856;2023-02-28T12:40:21;16.73;;;5.97;;
3712;SDS011;1872;51.406;6.856;2023-02-28T12:42:52;3.87;;;3.57;;
3712;SDS011;1872;51.406;6.856;2023-02-28T12:45:22;5.10;;;4.43;;
3712;SDS011;1872;51.406;6.856;2023-02-28T12:47:57;4.30;;;4.00;;
3712;SDS011;1872;51.406;6.856;2023-02-28T12:50:26;4.13;;;3.73;;
3712;SDS011;1872;51.406;6.856;2023-02-28T13:09:22;4.97;;;4.00;;
3712;SDS011;1872;51.406;6.856;2023-02-28T13:11:49;5.90;;;4.53;;
3712;SDS011;1872;51.406;6.856;2023-02-28T13:14:22;6.27;;;4.93;;
3712;SDS011;1872;51.406;6.856;2023-02-28T13:19:30;4.80;;;4.30;;
3712;SDS011;1872;51.406;6.856;2023-02-28T13:21:58;4.93;;;4.50;;
3712;SDS011;1872;51.406;6.856;2023-02-28T13:29:31;4.90;;;4.40;;
3712;SDS011;1872;51.406;6.856;2023-02-28T13:34:31;6.33;;;5.10;;
3712;SDS011;1872;51.406;6.856;2023-02-28T13:39:50;5.57;;;5.07;;
3712;SDS011;1872;51.406;6.856;2023-02-28T13:47:28;5.37;;;4.87;;
3712;SDS011;1872;51.406;6.856;2023-02-28T14:01:22;5.93;;;5.43;;
3712;SDS011;1872;51.406;6.856;2023-02-28T14:04:07;6.07;;;5.40;;
3712;SDS011;1872;51.406;6.856;2023-02-28T14:07:01;5.30;;;4.80;;
3712;SDS011;1872;51.406;6.856;2023-02-28T14:09:38;6.87;;;5.50;;
3712;SDS011;1872;51.406;6.856;2023-02-28T14:17:59;6.47;;;4.93;;
3712;SDS011;1872;51.406;6.856;2023-02-28T14:20:29;6.60;;;6.00;;
3712;SDS011;1872;51.406;6.856;2023-02-28T14:23:09;5.43;;;5.03;;
3712;SDS011;1872;51.406;6.856;2023-02-28T14:33:25;6.60;;;6.00;;
3712;SDS011;1872;51.406;6.856;2023-02-28T14:36:04;7.00;;;6.17;;
3712;SDS011;1872;51.406;6.856;2023-02-28T14:41:12;7.00;;;6.40;;
3712;SDS011;1872;51.406;6.856;2023-02-28T14:43:52;6.50;;;5.83;;
3712;SDS011;1872;51.406;6.856;2023-02-28T14:46:20;6.90;;;5.70;;
3712;SDS011;1872;51.406;6.856;2023-02-28T14:48:47;6.73;;;6.13;;
3712;SDS011;1872;51.406;6.856;2023-02-28T14:51:18;7.07;;;6.37;;
3712;SDS011;1872;51.406;6.856;2023-02-28T14:53:48;7.47;;;6.70;;
3712;SDS011;1872;51.406;6.856;2023-02-28T14:56:23;6.70;;;6.00;;
3712;SDS011;1872;51.406;6.856;2023-02-28T14:58:56;7.50;;;6.10;;
3712;SDS011;1872;51.406;6.856;2023-02-28T15:01:23;6.70;;;6.17;;
3712;SDS011;1872;51.406;6.856;2023-02-28T15:03:56;6.80;;;5.80;;
3712;SDS011;1872;51.406;6.856;2023-02-28T15:06:28;6.57;;;5.97;;
3712;SDS011;1872;51.406;6.856;2023-02-28T15:11:55;6.10;;;5.60;;
3712;SDS011;1872;51.406;6.856;2023-02-28T15:14:21;6.83;;;6.23;;
3712;SDS011;1872;51.406;6.856;2023-02-28T15:16:49;7.10;;;6.40;;
3712;SDS011;1872;51.406;6.856;2023-02-28T15:19:23;7.20;;;6.50;;
3712;SDS011;1872;51.406;6.856;2023-02-28T15:21:56;8.80;;;7.90;;
3712;SDS011;1872;51.406;6.856;2023-02-28T15:24:39;8.23;;;6.73;;
3712;SDS011;1872;51.406;6.856;2023-02-28T15:27:07;7.13;;;6.43;;
3712;SDS011;1872;51.406;6.856;2023-02-28T15:29:43;7.47;;;6.77;;
3712;SDS011;1872;51.406;6.856;2023-02-28T15:32:29;7.07;;;6.47;;
3712;SDS011;1872;51.406;6.856;2023-02-28T15:40:50;7.40;;;6.70;;
3712;SDS011;1872;51.406;6.856;2023-02-28T15:43:28;7.33;;;6.67;;
3712;SDS011;1872;51.406;6.856;2023-02-28T15:46:27;7.53;;;6.87;;
3712;SDS011;1872;51.406;6.856;2023-02-28T15:48:55;7.00;;;6.40;;
3712;SDS011;1872;51.406;6.856;2023-02-28T15:51:55;6.10;;;5.50;;
3712;SDS011;1872;51.406;6.856;2023-02-28T15:54:17;6.40;;;5.80;;
3712;SDS011;1872;51.406;6.856;2023-02-28T15:56:51;7.00;;;6.30;;
3712;SDS011;1872;51.406;6.856;2023-02-28T15:59:28;6.50;;;5.60;;
3712;SDS011;1872;51.406;6.856;2023-02-28T16:02:03;7.10;;;6.40;;
3712;SDS011;1872;51.406;6.856;2023-02-28T16:04:35;6.70;;;6.20;;
3712;SDS011;1872;51.406;6.856;2023-02-28T16:07:03;7.40;;;6.63;;
3712;SDS011;1872;51.406;6.856;2023-02-28T16:09:30;6.70;;;6.10;;
3712;SDS011;1872;51.406;6.856;2023-02-28T16:11:59;6.80;;;6.20;;
3712;SDS011;1872;51.406;6.856;2023-02-28T16:14:27;8.37;;;6.30;;
3712;SDS011;1872;51.406;6.856;2023-02-28T16:17:03;7.10;;;6.50;;
3712;SDS011;1872;51.406;6.856;2023-02-28T16:19:34;6.80;;;6.20;;
3712;SDS011;1872;51.406;6.856;2023-02-28T16:22:00;7.50;;;6.63;;
3712;SDS011;1872;51.406;6.856;2023-02-28T16:24:28;7.00;;;6.40;;
3712;SDS011;1872;51.406;6.856;2023-02-28T16:26:54;7.67;;;6.80;;
3712;SDS011;1872;51.406;6.856;2023-02-28T16:29:24;6.63;;;6.00;;
3712;SDS011;1872;51.406;6.856;2023-02-28T16:31:59;7.37;;;6.67;;
3712;SDS011;1872;51.406;6.856;2023-02-28T16:34:26;7.27;;;6.17;;
3712;SDS011;1872;51.406;6.856;2023-02-28T16:36:52;7.37;;;6.57;;
3712;SDS011;1872;51.406;6.856;2023-02-28T16:39:19;9.37;;;6.33;;
3712;SDS011;1872;51.406;6.856;2023-02-28T16:41:46;7.93;;;6.50;;
3712;SDS011;1872;51.406;6.856;2023-02-28T16:44:19;6.80;;;6.10;;
3712;SDS011;1872;51.406;6.856;2023-02-28T16:46:47;7.07;;;6.37;;
3712;SDS011;1872;51.406;6.856;2023-02-28T16:49:13;7.23;;;6.53;;
3712;SDS011;1872;51.406;6.856;2023-02-28T16:51:39;7.23;;;6.57;;
3712;SDS011;1872;51.406;6.856;2023-02-28T16:54:04;7.17;;;6.47;;
3712;SDS011;1872;51.406;6.856;2023-02-28T16:56:30;7.10;;;6.50;;
3712;SDS011;1872;51.406;6.856;2023-02-28T16:58:59;9.27;;;6.60;;
3712;SDS011;1872;51.406;6.856;2023-02-28T17:01:26;7.40;;;6.70;;
3712;SDS011;1872;51.406;6.856;2023-02-28T17:03:53;7.10;;;6.40;;
3712;SDS011;1872;51.406;6.856;2023-02-28T17:06:24;7.87;;;6.90;;
3712;SDS011;1872;51.406;6.856;2023-02-28T17:08:55;8.77;;;7.30;;
3712;SDS011;1872;51.406;6.856;2023-02-28T17:11:23;10.07;;;6.50;;
3712;SDS011;1872;51.406;6.856;2023-02-28T17:13:51;7.23;;;6.57;;
3712;SDS011;1872;51.406;6.856;2023-02-28T17:16:25;7.47;;;6.77;;
3712;SDS011;1872;51.406;6.856;2023-02-28T17:19:03;8.20;;;6.90;;
3712;SDS011;1872;51.406;6.856;2023-02-28T17:21:31;8.77;;;7.00;;
3712;SDS011;1872;51.406;6.856;2023-02-28T17:23:58;7.60;;;6.57;;
3712;SDS011;1872;51.406;6.856;2023-02-28T17:26:24;6.80;;;6.13;;
3712;SDS011;1872;51.406;6.856;2023-02-28T17:28:51;7.20;;;6.50;;
3712;SDS011;1872;51.406;6.856;2023-02-28T17:31:17;8.40;;;6.27;;
3712;SDS011;1872;51.406;6.856;2023-02-28T17:33:43;7.50;;;6.90;;
3712;SDS011;1872;51.406;6.856;2023-02-28T17:39:02;7.10;;;6.10;;
3712;SDS011;1872;51.406;6.856;2023-02-28T17:41:33;8.93;;;7.00;;
3712;SDS011;1872;51.406;6.856;2023-02-28T17:43:59;8.00;;;7.03;;
3712;SDS011;1872;51.406;6.856;2023-02-28T17:46:25;8.23;;;6.90;;
3712;SDS011;1872;51.406;6.856;2023-02-28T17:48:52;8.17;;;7.33;;
3712;SDS011;1872;51.406;6.856;2023-02-28T17:51:20;8.40;;;6.60;;
3712;SDS011;1872;51.406;6.856;2023-02-28T17:53:47;9.30;;;7.47;;
3712;SDS011;1872;51.406;6.856;2023-02-28T17:56:23;8.17;;;7.37;;
3712;SDS011;1872;51.406;6.856;2023-02-28T17:58:50;8.00;;;6.87;;
3712;SDS011;1872;51.406;6.856;2023-02-28T18:01:18;8.60;;;7.70;;
3712;SDS011;1872;51.406;6.856;2023-02-28T18:03:45;8.17;;;7.20;;
3712;SDS011;1872;51.406;6.856;2023-02-28T18:06:16;8.50;;;7.63;;
3712;SDS011;1872;51.406;6.856;2023-02-28T18:08:46;8.87;;;7.97;;
3712;SDS011;1872;51.406;6.856;2023-02-28T18:11:12;9.23;;;7.70;;
3712;SDS011;1872;51.406;6.856;2023-02-28T18:13:48;9.83;;;8.63;;
3712;SDS011;1872;51.406;6.856;2023-02-28T18:16:19;10.90;;;8.40;;
3712;SDS011;1872;51.406;6.856;2023-02-28T18:18:48;11.80;;;8.73;;
3712;SDS011;1872;51.406;6.856;2023-02-28T18:21:15;13.53;;;10.90;;
3712;SDS011;1872;51.406;6.856;2023-02-28T18:23:42;9.50;;;8.63;;